Edgar G. Obie (S71)
Chinook, MT
Field Elevation: 2416
Lat: 48°35.32N  Long: 109°15.02W
CTAF/Unicom Freq: 122.8000
   
    
Weather Advisories
2017-03-25   13:23 Z
Altimeter 29.86" Hg
Wind 240° @ 15 KT
Gusts 20 KT
Visibility 10 SM
Temperature 7° C (45° F)
Dewpoint -3° C (27° F)
Relative Humidity 48%
Density Altitude --
Condensation Altitude 7,400 feet
Wind Chill: 3° C (37° F)
Wind and Runways
Indicated Runway = 26
Headwind = 14 kt
Crosswind = 5 kt
History
 
 
 
More Info
NOAA Forecast
 
 
About Us
Belfort Instrument
 
 
FAA Disclaimer: The data displayed is for advisory purposes only and is not to be used for flight planning or operations. For official data, please call (not available) to hear the current automated AWOS voice message.
  METAR S71 251323Z AUTO 24015G20KT 10 SM 07/M03 A2986